createdAt,value
2022-10-08T00:01:43.032Z,9.32
2022-10-08T00:04:10.988Z,10.15
2022-10-08T00:06:44.992Z,9.32
2022-10-08T00:09:11.887Z,8.80
2022-10-08T00:11:39.786Z,8.57
2022-10-08T00:14:14.002Z,8.63
2022-10-08T00:16:41.593Z,10.93
2022-10-08T00:19:19.002Z,8.65
2022-10-08T00:21:52.993Z,8.43
2022-10-08T00:24:20.107Z,8.45
2022-10-08T00:26:54.075Z,7.80
2022-10-08T00:29:22.335Z,9.20
2022-10-08T00:31:49.955Z,8.30
2022-10-08T00:34:26.982Z,8.25
2022-10-08T00:36:55.001Z,9.68
2022-10-08T00:39:29.989Z,9.50
2022-10-08T00:41:56.924Z,9.73
2022-10-08T00:45:08.017Z,8.23
2022-10-08T00:47:53.970Z,8.32
2022-10-08T00:50:26.373Z,8.38
2022-10-08T00:53:04.977Z,7.78
2022-10-08T00:55:31.954Z,9.65
2022-10-08T00:58:09.032Z,10.50
2022-10-08T01:00:35.972Z,7.28
2022-10-08T01:03:09.002Z,7.25
2022-10-08T01:06:01.248Z,8.02
2022-10-08T01:08:41.988Z,11.98
2022-10-08T01:11:43.997Z,10.75
2022-10-08T01:15:01.987Z,8.00
2022-10-08T01:17:48.899Z,8.20
2022-10-08T01:20:21.979Z,7.75
2022-10-08T01:23:18.070Z,8.77
2022-10-08T01:26:01.031Z,9.75
2022-10-08T01:28:39.526Z,8.20
2022-10-08T01:31:23.090Z,9.05
2022-10-08T01:34:09.740Z,7.88
2022-10-08T01:36:52.047Z,9.75
2022-10-08T01:39:21.271Z,7.35
2022-10-08T01:42:04.024Z,7.97
2022-10-08T01:44:43.342Z,10.65
2022-10-08T01:47:20.024Z,10.23
2022-10-08T01:49:51.768Z,8.88
2022-10-08T01:52:30.006Z,8.57
2022-10-08T01:55:07.030Z,7.70
2022-10-08T01:57:33.937Z,7.07
2022-10-08T02:00:14.063Z,7.32
2022-10-08T02:02:48.033Z,7.05
2022-10-08T02:05:22.082Z,8.88
2022-10-08T02:07:55.022Z,9.55
2022-10-08T02:10:23.872Z,7.90
2022-10-08T02:12:57.047Z,9.45
2022-10-08T02:15:52.151Z,7.72
2022-10-08T02:18:30.087Z,8.32
2022-10-08T02:21:03.801Z,9.35
2022-10-08T02:23:54.077Z,9.68
2022-10-08T02:26:27.061Z,8.20
2022-10-08T02:29:06.055Z,9.43
2022-10-08T02:31:38.604Z,9.25
2022-10-08T02:34:33.056Z,8.77
2022-10-08T02:37:22.388Z,7.95
2022-10-08T02:40:06.051Z,8.88
2022-10-08T02:42:32.869Z,9.65
2022-10-08T02:45:20.107Z,8.32
2022-10-08T02:47:54.059Z,10.80
2022-10-08T02:50:29.054Z,11.15
2022-10-08T02:52:55.989Z,10.57
2022-10-08T02:55:43.069Z,9.32
2022-10-08T02:58:10.757Z,11.40
2022-10-08T03:00:51.168Z,9.82
2022-10-08T03:03:32.861Z,9.25
2022-10-08T03:06:08.145Z,9.98
2022-10-08T03:08:36.686Z,11.90
2022-10-08T03:11:04.257Z,9.52
2022-10-08T03:13:38.164Z,8.88
2022-10-08T03:16:07.367Z,11.88
2022-10-08T03:18:41.105Z,9.75
2022-10-08T03:21:11.802Z,9.65
2022-10-08T03:23:45.077Z,8.60
2022-10-08T03:26:12.030Z,9.80
2022-10-08T03:28:39.053Z,8.32
2022-10-08T03:31:13.172Z,8.50
2022-10-08T03:33:47.117Z,8.57
2022-10-08T03:36:14.015Z,11.98
2022-10-08T03:38:47.105Z,11.15
2022-10-08T03:41:14.224Z,10.90
2022-10-08T03:43:48.114Z,10.07
2022-10-08T03:46:15.483Z,10.38
2022-10-08T03:48:49.138Z,11.80
2022-10-08T03:51:23.085Z,8.15
2022-10-08T03:53:50.010Z,11.45
2022-10-08T03:56:29.119Z,9.48
2022-10-08T03:59:06.121Z,8.27
2022-10-08T04:01:33.108Z,11.23
2022-10-08T04:04:07.132Z,8.80
2022-10-08T04:06:34.315Z,7.20
2022-10-08T04:09:08.162Z,8.15
2022-10-08T04:11:35.084Z,9.73
2022-10-08T04:14:01.979Z,8.77
2022-10-08T04:16:35.126Z,7.07
2022-10-08T04:19:08.135Z,9.05
2022-10-08T04:21:41.145Z,11.05
2022-10-08T04:24:09.282Z,8.73
2022-10-08T04:26:43.125Z,8.00
2022-10-08T04:29:10.008Z,7.03
2022-10-08T04:31:43.138Z,8.63
2022-10-08T04:34:18.092Z,6.70
2022-10-08T04:36:44.987Z,8.57
2022-10-08T04:39:18.165Z,7.38
2022-10-08T04:41:45.057Z,10.90
2022-10-08T04:44:19.110Z,10.15
2022-10-08T04:46:46.008Z,7.95
2022-10-08T04:49:19.128Z,8.52
2022-10-08T04:51:46.043Z,9.85
2022-10-08T04:54:19.195Z,7.40
2022-10-08T04:56:46.063Z,7.10
2022-10-08T04:59:19.149Z,7.65
2022-10-08T05:01:46.092Z,7.18
2022-10-08T05:04:19.139Z,7.85
2022-10-08T05:06:52.109Z,7.47
2022-10-08T05:09:19.065Z,7.45
2022-10-08T05:11:52.159Z,7.50
2022-10-08T05:14:19.051Z,11.27
2022-10-08T05:16:52.264Z,7.20
2022-10-08T05:19:19.242Z,8.27
2022-10-08T05:21:46.474Z,8.95
2022-10-08T05:24:20.163Z,7.57
2022-10-08T05:26:58.449Z,8.27
2022-10-08T05:29:25.987Z,9.00
2022-10-08T05:31:59.244Z,7.07
2022-10-08T05:34:26.270Z,7.93
2022-10-08T05:37:00.213Z,8.00
2022-10-08T05:39:27.126Z,10.75
2022-10-08T05:41:54.084Z,9.43
2022-10-08T05:44:27.195Z,10.13
2022-10-08T05:46:54.437Z,7.55
2022-10-08T05:49:29.548Z,7.90
2022-10-08T05:51:56.537Z,8.43
2022-10-08T05:54:30.169Z,9.93
2022-10-08T05:56:57.060Z,9.05
2022-10-08T05:59:31.187Z,9.02
2022-10-08T06:01:58.160Z,8.48
2022-10-08T06:04:31.266Z,8.27
2022-10-08T06:06:58.170Z,7.97
2022-10-08T06:09:31.282Z,8.55
2022-10-08T06:11:58.320Z,10.90
2022-10-08T06:14:25.218Z,8.98
2022-10-08T06:16:58.186Z,10.10
2022-10-08T06:19:25.098Z,8.95
2022-10-08T06:21:58.219Z,8.45
2022-10-08T06:24:25.139Z,8.88
2022-10-08T06:26:58.147Z,8.02
2022-10-08T06:29:25.085Z,8.48
2022-10-08T06:31:58.178Z,8.15
2022-10-08T06:34:25.133Z,8.27
2022-10-08T06:36:58.245Z,7.95
2022-10-08T06:39:25.175Z,7.75
2022-10-08T06:41:52.074Z,7.82
2022-10-08T06:44:25.201Z,7.70
2022-10-08T06:46:52.263Z,8.35
2022-10-08T06:49:26.217Z,7.72
2022-10-08T06:51:53.121Z,8.90
2022-10-08T06:54:26.199Z,8.32
2022-10-08T06:56:59.229Z,7.18
2022-10-08T06:59:26.114Z,7.40
2022-10-08T07:01:53.042Z,7.05
2022-10-08T07:04:26.622Z,7.20
2022-10-08T07:06:53.650Z,8.07
2022-10-08T07:09:27.216Z,7.60
2022-10-08T07:12:00.202Z,9.90
2022-10-08T07:14:27.074Z,8.82
2022-10-08T07:17:00.234Z,8.00
2022-10-08T07:19:27.102Z,7.50
2022-10-08T07:22:01.446Z,8.77
2022-10-08T07:24:35.208Z,8.23
2022-10-08T07:27:02.051Z,10.10
2022-10-08T07:29:28.925Z,7.57
2022-10-08T07:32:02.238Z,7.82
2022-10-08T07:34:35.190Z,7.93
2022-10-08T07:37:08.210Z,9.25
2022-10-08T07:39:35.050Z,7.85
2022-10-08T07:42:08.237Z,9.02
2022-10-08T07:44:41.197Z,7.28
2022-10-08T07:47:14.229Z,7.97
2022-10-08T07:49:47.876Z,7.72
2022-10-08T07:52:21.267Z,10.02
2022-10-08T07:54:51.444Z,7.30
2022-10-08T07:57:25.256Z,9.85
2022-10-08T07:59:52.132Z,7.38
2022-10-08T08:02:25.322Z,7.63
2022-10-08T08:04:52.254Z,7.00
2022-10-08T08:07:25.254Z,7.20
2022-10-08T08:09:52.170Z,7.32
2022-10-08T08:12:25.322Z,7.30
2022-10-08T08:14:57.198Z,6.95
2022-10-08T08:17:30.237Z,7.28
2022-10-08T08:19:57.480Z,8.65
2022-10-08T08:22:24.470Z,8.07
2022-10-08T08:24:58.277Z,7.95
2022-10-08T08:27:25.155Z,9.80
2022-10-08T08:29:58.270Z,8.65
2022-10-08T08:32:28.515Z,11.05
2022-10-08T08:34:55.579Z,9.40
2022-10-08T08:37:29.249Z,8.38
2022-10-08T08:40:02.265Z,7.43
2022-10-08T08:42:49.488Z,7.25
2022-10-08T08:45:49.025Z,7.25
2022-10-08T08:48:24.419Z,7.20
2022-10-08T08:50:58.302Z,7.72
2022-10-08T08:53:25.247Z,8.82
2022-10-08T08:56:03.388Z,6.82
2022-10-08T08:58:49.884Z,8.25
2022-10-08T09:01:44.298Z,6.78
2022-10-08T09:04:27.106Z,7.65
2022-10-08T09:07:00.303Z,7.97
2022-10-08T09:09:37.680Z,8.23
2022-10-08T09:12:26.351Z,11.65
2022-10-08T09:14:59.423Z,9.35
2022-10-08T09:17:42.352Z,8.07
2022-10-08T09:20:15.294Z,10.10
2022-10-08T09:22:48.683Z,9.93
2022-10-08T09:25:27.415Z,8.43
2022-10-08T09:28:08.329Z,8.27
2022-10-08T09:30:41.192Z,7.28
2022-10-08T09:33:23.392Z,7.55
2022-10-08T09:35:51.885Z,7.97
2022-10-08T09:38:34.339Z,8.43
2022-10-08T09:41:02.818Z,7.47
2022-10-08T09:43:37.438Z,7.45
2022-10-08T09:46:08.917Z,9.23
2022-10-08T09:48:35.933Z,8.32
2022-10-08T09:51:22.350Z,7.82
2022-10-08T09:53:54.681Z,9.55
2022-10-08T09:56:33.417Z,7.45
2022-10-08T09:59:09.375Z,8.32
2022-10-08T10:01:36.328Z,8.63
2022-10-08T10:04:03.517Z,8.75
2022-10-08T10:06:41.326Z,12.70
2022-10-08T10:09:11.109Z,8.73
2022-10-08T10:11:57.370Z,7.70
2022-10-08T10:14:55.181Z,8.07
2022-10-08T10:17:56.434Z,7.55
2022-10-08T10:20:40.277Z,7.75
2022-10-08T10:23:26.345Z,7.28
2022-10-08T10:26:08.396Z,7.13
2022-10-08T10:29:01.420Z,7.53
2022-10-08T10:31:39.476Z,7.28
2022-10-08T10:34:28.317Z,7.78
2022-10-08T10:37:06.407Z,7.20
2022-10-08T10:39:48.375Z,7.88
2022-10-08T10:42:41.279Z,9.02
2022-10-08T10:45:20.334Z,10.57
2022-10-08T10:47:47.242Z,7.72
2022-10-08T10:50:21.369Z,12.10
2022-10-08T10:52:59.742Z,9.20
2022-10-08T10:55:58.448Z,10.07
2022-10-08T10:58:51.820Z,10.73
2022-10-08T11:02:00.601Z,7.88
2022-10-08T11:05:12.023Z,11.55
2022-10-08T11:08:23.375Z,7.75
2022-10-08T11:11:05.274Z,12.32
2022-10-08T11:14:03.427Z,10.05
2022-10-08T11:17:01.932Z,9.07
2022-10-08T11:19:48.511Z,10.65
2022-10-08T11:22:47.556Z,12.07
2022-10-08T11:25:24.388Z,10.95
2022-10-08T11:28:13.491Z,8.85
2022-10-08T11:31:21.838Z,9.77
2022-10-08T11:33:55.427Z,9.32
2022-10-08T11:36:47.401Z,14.35
2022-10-08T11:39:35.904Z,17.55
2022-10-08T11:43:08.419Z,15.30
2022-10-08T11:45:38.374Z,16.73
2022-10-08T11:48:40.441Z,14.10
2022-10-08T11:51:19.707Z,17.25
2022-10-08T11:54:29.577Z,14.90
2022-10-08T11:57:24.944Z,14.63
2022-10-08T12:00:08.888Z,17.25
2022-10-08T12:02:42.560Z,19.65
2022-10-08T12:05:50.215Z,15.38
2022-10-08T12:08:52.234Z,12.40
2022-10-08T12:11:40.424Z,15.00
2022-10-08T12:14:13.166Z,12.88
2022-10-08T12:16:55.476Z,14.35
2022-10-08T12:19:34.849Z,15.40
2022-10-08T12:22:23.513Z,15.00
2022-10-08T12:25:01.259Z,14.80
2022-10-08T12:27:42.536Z,13.27
2022-10-08T12:30:16.450Z,13.50
2022-10-08T12:32:50.730Z,12.98
2022-10-08T12:35:31.975Z,16.10
2022-10-08T12:38:33.546Z,12.60
2022-10-08T12:41:22.874Z,13.00
2022-10-08T12:44:08.488Z,11.55
2022-10-08T12:47:35.478Z,15.00
2022-10-08T12:50:41.500Z,11.35
2022-10-08T12:53:12.450Z,16.42
2022-10-08T12:56:01.487Z,12.25
2022-10-08T12:58:33.843Z,13.38
2022-10-08T13:01:08.523Z,12.48
2022-10-08T13:03:35.443Z,12.40
2022-10-08T13:06:34.001Z,12.55
2022-10-08T13:09:01.079Z,11.88
2022-10-08T13:11:34.489Z,12.77
2022-10-08T13:14:01.334Z,13.40
2022-10-08T13:16:34.482Z,11.57
2022-10-08T13:19:01.337Z,15.38
2022-10-08T13:21:37.483Z,15.15
2022-10-08T13:24:13.463Z,13.73
2022-10-08T13:27:00.521Z,12.90
2022-10-08T13:29:39.461Z,19.73
2022-10-08T13:32:29.470Z,13.68
2022-10-08T13:35:00.600Z,14.60
2022-10-08T13:37:44.629Z,15.32
2022-10-08T13:40:11.591Z,15.60
2022-10-08T13:43:14.477Z,18.90
2022-10-08T13:45:41.332Z,15.55
2022-10-08T13:48:21.509Z,14.18
2022-10-08T13:51:01.523Z,13.57
2022-10-08T13:53:28.442Z,15.15
2022-10-08T13:56:01.467Z,16.55
2022-10-08T13:58:28.750Z,20.42
2022-10-08T14:01:02.575Z,15.20
2022-10-08T14:03:35.524Z,15.35
2022-10-08T14:06:02.387Z,15.23
2022-10-08T14:08:29.248Z,13.07
2022-10-08T14:11:02.525Z,18.10
2022-10-08T14:13:29.390Z,14.27
2022-10-08T14:16:02.574Z,14.57
2022-10-08T14:18:29.580Z,13.70
2022-10-08T14:21:02.525Z,14.25
2022-10-08T14:23:29.425Z,13.43
2022-10-08T14:25:56.275Z,14.20
2022-10-08T14:28:29.614Z,13.88
2022-10-08T14:31:02.606Z,15.15
2022-10-08T14:33:29.536Z,13.85
2022-10-08T14:35:56.395Z,17.27
2022-10-08T14:38:29.537Z,17.60
2022-10-08T14:40:56.443Z,18.88
2022-10-08T14:43:29.597Z,19.48
2022-10-08T14:46:02.597Z,19.20
2022-10-08T14:48:35.514Z,19.13
2022-10-08T14:51:02.422Z,15.90
2022-10-08T14:53:35.551Z,17.55
2022-10-08T14:56:12.425Z,16.77
2022-10-08T14:58:39.735Z,16.55
2022-10-08T15:01:06.726Z,14.02
2022-10-08T15:03:40.604Z,19.63
2022-10-08T15:06:14.574Z,15.18
2022-10-08T15:08:41.447Z,14.75
2022-10-08T15:11:14.577Z,16.65
2022-10-08T15:13:41.410Z,16.00
2022-10-08T15:16:21.647Z,16.95
2022-10-08T15:18:48.607Z,18.23
2022-10-08T15:21:21.576Z,14.35
2022-10-08T15:23:54.559Z,23.40
2022-10-08T15:26:21.410Z,20.17
2022-10-08T15:28:48.397Z,46.63
2022-10-08T15:31:23.573Z,106.72
2022-10-08T15:33:51.627Z,197.15
2022-10-08T15:36:31.595Z,168.85
2022-10-08T15:39:15.517Z,123.90
2022-10-08T15:41:53.615Z,91.65
2022-10-08T15:44:21.452Z,96.78
2022-10-08T15:46:50.067Z,57.78
2022-10-08T15:49:23.570Z,31.20
2022-10-08T15:51:50.420Z,29.63
2022-10-08T15:54:23.586Z,22.02
2022-10-08T15:56:50.430Z,23.67
2022-10-08T15:59:23.593Z,24.42
2022-10-08T16:01:50.535Z,26.20
2022-10-08T16:04:23.581Z,29.35
2022-10-08T16:06:50.459Z,28.67
2022-10-08T16:09:19.528Z,32.22
2022-10-08T16:11:53.587Z,31.20
2022-10-08T16:14:24.467Z,26.42
2022-10-08T16:16:51.710Z,25.17
2022-10-08T16:19:30.585Z,22.73
2022-10-08T16:22:04.600Z,20.83
2022-10-08T16:24:31.473Z,21.05
2022-10-08T16:27:04.617Z,23.23
2022-10-08T16:29:31.482Z,20.77
2022-10-08T16:32:04.615Z,25.25
2022-10-08T16:34:31.493Z,23.63
2022-10-08T16:36:58.427Z,32.30
2022-10-08T16:39:31.607Z,26.40
2022-10-08T16:41:58.487Z,26.67
2022-10-08T16:44:31.664Z,23.83
2022-10-08T16:46:58.557Z,24.83
2022-10-08T16:49:33.645Z,26.05
2022-10-08T16:52:03.264Z,26.30
2022-10-08T16:54:36.627Z,28.98
2022-10-08T16:57:03.529Z,24.88
2022-10-08T16:59:30.874Z,23.42
2022-10-08T17:02:05.683Z,34.38
2022-10-08T17:04:32.586Z,36.42
2022-10-08T17:07:05.633Z,29.95
2022-10-08T17:09:32.466Z,35.85
2022-10-08T17:12:05.633Z,30.83
2022-10-08T17:14:38.645Z,25.02
2022-10-08T17:17:05.559Z,26.80
2022-10-08T17:19:32.468Z,28.25
2022-10-08T17:22:05.624Z,28.10
2022-10-08T17:24:32.505Z,29.08
2022-10-08T17:27:05.725Z,35.63
2022-10-08T17:29:32.663Z,31.58
2022-10-08T17:32:05.670Z,32.17
2022-10-08T17:34:33.203Z,31.75
2022-10-08T17:37:06.628Z,31.50
2022-10-08T17:39:33.510Z,26.42
2022-10-08T17:42:07.428Z,30.60
2022-10-08T17:44:35.042Z,32.67
2022-10-08T17:47:01.889Z,26.85
2022-10-08T17:49:35.672Z,29.95
2022-10-08T17:52:02.532Z,29.08
2022-10-08T17:54:35.716Z,30.20
2022-10-08T17:57:02.719Z,35.22
2022-10-08T17:59:35.687Z,28.83
2022-10-08T18:02:02.841Z,36.08
2022-10-08T18:04:36.708Z,36.00
2022-10-08T18:07:03.843Z,37.10
2022-10-08T18:09:37.724Z,35.38
2022-10-08T18:12:11.732Z,33.63
2022-10-08T18:14:38.790Z,31.67
2022-10-08T18:17:11.670Z,32.50
2022-10-08T18:19:38.594Z,33.58
2022-10-08T18:22:05.522Z,34.33
2022-10-08T18:24:38.770Z,34.75
2022-10-08T18:27:05.651Z,35.85
2022-10-08T18:29:38.698Z,37.67
2022-10-08T18:32:11.705Z,34.05
2022-10-08T18:34:44.719Z,37.17
2022-10-08T18:37:11.604Z,39.60
2022-10-08T18:39:44.779Z,38.92
2022-10-08T18:42:17.733Z,38.28
2022-10-08T18:44:51.725Z,37.03
2022-10-08T18:47:24.727Z,41.10
2022-10-08T18:49:51.623Z,39.03
2022-10-08T18:52:24.710Z,38.97
2022-10-08T18:54:51.580Z,35.83
2022-10-08T18:57:24.959Z,35.10
2022-10-08T18:59:51.805Z,36.50
2022-10-08T19:02:18.732Z,33.63
2022-10-08T19:04:51.752Z,28.70
2022-10-08T19:07:18.686Z,35.78
2022-10-08T19:09:51.779Z,35.38
2022-10-08T19:12:24.797Z,37.35
2022-10-08T19:14:57.723Z,32.92
2022-10-08T19:17:24.644Z,33.65
2022-10-08T19:19:51.505Z,33.92
2022-10-08T19:22:24.713Z,33.63
2022-10-08T19:24:51.601Z,30.60
2022-10-08T19:27:18.447Z,33.70
2022-10-08T19:29:51.753Z,30.80
2022-10-08T19:32:24.729Z,29.38
2022-10-08T19:34:51.613Z,31.50
2022-10-08T19:37:24.776Z,31.88
2022-10-08T19:39:51.653Z,31.38
2022-10-08T19:42:24.739Z,33.95
2022-10-08T19:44:57.769Z,29.70
2022-10-08T19:47:37.839Z,34.10
2022-10-08T19:50:11.752Z,29.35
2022-10-08T19:52:53.086Z,28.25
2022-10-08T19:55:20.176Z,24.85
2022-10-08T19:57:47.098Z,24.48
2022-10-08T20:00:20.736Z,20.30
2022-10-08T20:02:47.850Z,18.83
2022-10-08T20:05:27.764Z,17.58
2022-10-08T20:07:54.678Z,12.63
2022-10-08T20:10:21.573Z,12.80
2022-10-08T20:12:54.784Z,11.40
2022-10-08T20:15:21.648Z,10.15
2022-10-08T20:17:54.785Z,11.75
2022-10-08T20:20:32.835Z,8.43
2022-10-08T20:23:06.763Z,9.27
2022-10-08T20:25:33.637Z,8.25
2022-10-08T20:28:06.875Z,9.25
2022-10-08T20:30:39.817Z,9.75
2022-10-08T20:33:06.667Z,9.02
2022-10-08T20:35:42.750Z,7.85
2022-10-08T20:38:09.578Z,8.40
2022-10-08T20:40:42.785Z,9.68
2022-10-08T20:43:09.625Z,10.27
2022-10-08T20:45:42.799Z,10.45
2022-10-08T20:48:09.658Z,13.13
2022-10-08T20:50:42.775Z,10.55
2022-10-08T20:53:09.620Z,10.88
2022-10-08T20:55:43.823Z,9.35
2022-10-08T20:58:10.714Z,8.80
2022-10-08T21:00:43.803Z,7.03
2022-10-08T21:03:10.725Z,8.13
2022-10-08T21:05:40.684Z,7.18
2022-10-08T21:08:13.799Z,7.18
2022-10-08T21:10:40.657Z,6.65
2022-10-08T21:13:13.826Z,7.40
2022-10-08T21:15:40.697Z,6.82
2022-10-08T21:18:13.833Z,7.45
2022-10-08T21:20:40.677Z,7.90
2022-10-08T21:23:13.823Z,7.90
2022-10-08T21:25:40.679Z,6.90
2022-10-08T21:28:13.865Z,7.07
2022-10-08T21:30:46.818Z,7.15
2022-10-08T21:33:13.729Z,8.07
2022-10-08T21:35:40.588Z,6.05
2022-10-08T21:38:13.818Z,6.28
2022-10-08T21:40:46.811Z,8.32
2022-10-08T21:43:19.845Z,9.27
2022-10-08T21:45:57.059Z,7.07
2022-10-08T21:48:31.819Z,6.40
2022-10-08T21:51:15.870Z,6.85
2022-10-08T21:53:50.918Z,5.95
2022-10-08T21:56:26.856Z,5.75
2022-10-08T21:58:55.404Z,5.90
2022-10-08T22:01:32.867Z,6.72
2022-10-08T22:04:19.829Z,8.85
2022-10-08T22:06:58.822Z,7.63
2022-10-08T22:09:27.583Z,7.75
2022-10-08T22:12:01.843Z,5.50
2022-10-08T22:14:29.034Z,5.68
2022-10-08T22:17:02.844Z,7.38
2022-10-08T22:19:29.815Z,6.00
2022-10-08T22:21:56.719Z,7.07
2022-10-08T22:24:29.889Z,5.18
2022-10-08T22:26:56.724Z,9.95
2022-10-08T22:29:29.887Z,5.38
2022-10-08T22:31:56.812Z,5.38
2022-10-08T22:34:29.897Z,8.00
2022-10-08T22:36:56.768Z,7.03
2022-10-08T22:39:29.877Z,6.72
2022-10-08T22:42:00.057Z,7.22
2022-10-08T22:44:27.185Z,10.63
2022-10-08T22:47:00.897Z,8.93
2022-10-08T22:49:28.573Z,6.43
2022-10-08T22:52:03.087Z,6.63
2022-10-08T22:54:29.939Z,7.15
2022-10-08T22:57:03.896Z,8.18
2022-10-08T22:59:30.727Z,8.65
2022-10-08T23:02:03.923Z,7.97
2022-10-08T23:04:30.807Z,8.27
2022-10-08T23:07:03.848Z,7.70
2022-10-08T23:09:30.766Z,8.63
2022-10-08T23:12:03.941Z,7.32
2022-10-08T23:14:30.777Z,9.20
2022-10-08T23:16:57.711Z,9.77
2022-10-08T23:19:30.953Z,8.20
2022-10-08T23:21:57.827Z,6.80
2022-10-08T23:24:24.683Z,10.40
2022-10-08T23:26:57.865Z,9.18
2022-10-08T23:29:24.862Z,10.23
2022-10-08T23:31:58.918Z,7.97
2022-10-08T23:34:25.871Z,6.50
2022-10-08T23:36:58.897Z,6.32
2022-10-08T23:39:25.739Z,8.85
2022-10-08T23:41:58.859Z,6.72
2022-10-08T23:44:25.691Z,7.50
2022-10-08T23:46:58.912Z,8.02
2022-10-08T23:49:31.930Z,6.93
2022-10-08T23:52:04.937Z,6.68
2022-10-08T23:54:31.965Z,10.95
2022-10-08T23:57:04.889Z,10.35
2022-10-08T23:59:31.736Z,7.32
